Stafford Township, New Jersey
Current Conditions -  °F | °C
As of 3:55 AM on Sunday 23 Nov 2014 (Local Time) from KMJX Reporting Station
Clear Clear  
Wind Chill: 37°   Ceiling: Unl
Heat Index: 37°   Visibility: 10mi
Dew Point: 21°   Wind: 3mph
Humidity: 52%   Direction: 240°WSW
Pressure: 30.2"   Gusts: NA
Location:  39.7102°N, 74.2577°W
Report Text: KMJX 230855Z AUTO 24003KT 10SM CLR 03/M06 A3020 RMK AO1 57014
Loading
Personal Weather Stations






























Interactive Weather Map New forecast layout! Learn more

10-Day Weather Forecast

Advertisements
Track Severe Weather on mobile